FW0906 Weather Reports


Display with metric or nautical units.
time (UTC)temp
F
wind
direction
speed
MPH
gust
MPH
rain 1hr
in
rain 24hr
in
rain mn
in
humidity
%
barometer
mb
20240624130018 74 306 0.0 2.0 0.00 0.00 0.00 100 1016.3
20240624124511 73 5 0.0 1.0 0.00 0.00 0.00 100 1016.2
20240624123004 73 19 0.0 0.0 0.00 0.00 0.00 100 1016.1
20240624121604 72 19 0.0 4.0 0.00 0.00 0.00 100 1016.0
20240624120053 71 5 0.0 1.0 0.00 0.00 0.00 100 1015.8
20240624114550 69 355 0.0 3.0 0.00 0.00 0.00 100 1015.6
20240624113045 69 344 0.0 1.0 0.00 0.00 0.00 100 1015.5
20240624111548 67 341 0.0 0.0 0.00 0.00 0.00 100 1015.3
20240624110038 66 340 0.0 3.0 0.00 0.00 0.00 100 1015.2
20240624104539 65 336 0.0 4.0 0.00 0.00 0.00 100 1015.1
20240624103029 65 315 0.0 1.0 0.00 0.00 0.00 100 1015.1
20240624101523 65 285 0.0 1.0 0.00 0.00 0.00 100 1014.9
20240624100019 64 284 0.0 0.0 0.00 0.00 0.00 100 1014.7
20240624094516 65 284 0.0 0.0 0.00 0.00 0.00 100 1014.7
20240624093010 65 283 0.0 0.0 0.00 0.00 0.00 100 1014.5
20240624091505 65 283 0.0 0.0 0.00 0.00 0.00 100 1014.3
20240624090001 65 283 0.0 0.0 0.00 0.00 0.00 100 1014.3
20240624084626 66 283 0.0 0.0 0.00 0.00 0.00 100 1014.2
20240624083051 66 283 0.0 0.0 0.00 0.00 0.00 100 1014.1
20240624081547 66 283 0.0 0.0 0.00 0.00 0.00 100 1013.9
20240624080044 66 281 0.0 0.0 0.00 0.00 0.00 100 1013.9
20240624074543 67 281 0.0 0.0 0.00 0.00 0.00 100 1013.9
20240624073034 67 281 0.0 0.0 0.00 0.00 0.00 100 1013.7
20240624071530 67 281 0.0 1.0 0.00 0.00 0.00 100 1013.6
20240624070026 67 280 0.0 1.0 0.00 0.00 0.00 100 1013.5
20240624064522 67 279 0.0 2.0 0.00 0.00 0.00 100 1013.6
20240624063017 67 279 0.0 1.0 0.00 0.00 0.00 100 1013.6
20240624061516 67 279 0.0 1.0 0.00 0.00 0.00 100 1013.7
20240624060008 68 279 0.0 0.0 0.00 0.00 0.00 100 1013.7
20240624054512 68 279 0.0 0.0 0.00 0.00 0.00 100 1013.7
20240624053100 68 276 0.0 0.0 0.00 0.00 0.00 100 1013.7
20240624051555 68 276 0.0 0.0 0.00 0.00 0.00 100 1013.8
20240624050053 69 279 1.0 3.0 0.00 0.00 0.00 100 1013.8
20240624044554 69 296 0.0 4.0 0.00 0.00 0.00 100 1013.8
20240624043043 69 304 0.0 0.0 0.00 0.00 0.00 100 1013.7
20240624041548 69 304 0.0 0.0 0.00 0.00 0.00 100 1013.6
20240624040034 69 304 0.0 0.0 0.00 0.00 0.00 100 1013.4
20240624034530 69 304 0.0 1.0 0.00 0.00 0.00 100 1013.4
20240624033031 70 305 0.0 0.0 0.00 0.00 0.00 100 1013.2
20240624031524 71 305 0.0 1.0 0.00 0.00 0.00 100 1013.1
20240624030017 71 305 0.0 0.0 0.00 0.00 0.00 100 1013.0
20240624024512 72 305 0.0 0.0 0.00 0.00 0.00 100 1012.9
20240624023007 73 305 0.0 0.0 0.00 0.00 0.00 100 1012.8
20240624021503 73 306 0.0 1.0 0.00 0.00 0.00 100 1012.6
20240624020121 74 306 0.0 0.0 0.00 0.00 0.00 100 1012.5
20240624014554 74 309 0.0 3.0 0.00 0.00 0.00 100 1012.5
20240624013050 75 307 0.0 3.0 0.00 0.00 0.00 100 1012.4
20240624011552 75 309 1.0 4.0 0.00 0.00 0.00 100 1012.3
20240624010042 76 298 2.0 7.0 0.00 0.00 0.00 100 1012.3
20240624004536 76 278 2.0 8.0 0.00 0.00 0.00 100 1012.2
20240624003058 77 300 4.0 8.0 0.00 0.00 0.00 100 1012.1
20240624001529 78 306 2.0 7.0 0.00 0.00 0.00 100 1012.2
20240624000024 78 297 3.0 8.0 0.00 0.00 0.00 100 1012.2
20240623234519 77 307 3.0 11.0 0.00 0.00 0.00 100 1012.2
20240623233015 77 312 8.0 14.0 0.00 0.00 0.00 100 1012.2
20240623231513 77 301 2.0 8.0 0.00 0.00 0.00 100 1011.9
20240623230017 78 360 4.0 13.0 0.00 0.00 0.00 1 1011.8
20240623224501 78 304 4.0 12.0 0.00 0.00 0.00 8 1011.8
20240623223059 78 307 5.0 10.0 0.00 0.00 0.00 6 1011.8
20240623221558 77 333 5.0 13.0 0.00 0.00 0.00 100 1011.8
20240623220049 78 291 5.0 11.0 0.00 0.00 0.00 100 1011.7
20240623214544 77 349 5.0 15.0 0.00 0.00 0.00 100 1011.8
20240623213040 79 28 6.0 13.0 0.00 0.00 0.00 100 1011.6
20240623211535 79 300 5.0 11.0 0.00 0.00 0.00 100 1011.5
20240623210031 79 336 5.0 12.0 0.00 0.00 0.00 100 1011.3
20240623204527 80 313 2.0 8.0 0.00 0.00 0.00 100 1011.2
20240623203022 78 360 5.0 9.0 0.00 0.00 0.00 100 1011.2
20240623201518 79 320 6.0 13.0 0.00 0.00 0.00 100 1011.1
20240623200014 78 300 6.0 17.0 0.00 0.00 0.00 100 1011.1
20240623194511 79 306 6.0 17.0 0.00 0.00 0.00 100 1011.0
20240623193014 78 301 7.0 15.0 0.00 0.00 0.00 100 1011.0
20240623191612 78 311 7.0 16.0 0.00 0.00 0.00 100 1010.9
20240623190108 78 312 6.0 13.0 0.00 0.00 0.00 100 1010.9
20240623184551 78 360 8.0 21.0 0.00 0.00 0.00 100 1010.8
20240623183047 77 360 9.0 19.0 0.00 0.00 0.00 100 1010.8
20240623181544 77 309 8.0 15.0 0.00 0.00 0.00 100 1010.7
20240623180039 77 304 10.0 17.0 0.00 0.00 0.00 100 1010.6
20240623174537 76 288 9.0 17.0 0.00 0.00 0.00 100 1010.5
20240623173046 76 360 12.0 18.0 0.00 0.00 0.00 100 1010.6
20240623171536 76 360 11.0 19.0 0.00 0.00 0.00 100 1010.5
20240623170020 75 294 10.0 15.0 0.00 0.00 0.00 100 1010.4
20240623164516 75 360 10.0 17.0 0.00 0.00 0.00 100 1010.2
20240623163020 75 360 11.0 17.0 0.00 0.00 0.00 100 1010.2
20240623161507 75 309 5.0 17.0 0.00 0.00 0.00 100 1010.0
20240623160005 75 311 7.0 13.0 0.00 0.00 0.00 100 1009.8
20240623154617 75 287 8.0 14.0 0.00 0.00 0.00 100 1009.6
20240623153102 74 287 6.0 16.0 0.00 0.00 0.00 100 1009.5
20240623151550 74 288 7.0 14.0 0.00 0.00 0.00 100 1009.2
20240623150045 73 288 10.0 15.0 0.00 0.00 0.00 100 1009.3
20240623144541 74 360 9.0 15.0 0.00 0.00 0.00 100 1009.1
20240623143040 74 257 8.0 15.0 0.00 0.00 0.00 100 1008.9
20240623141539 74 360 7.0 14.0 0.00 0.00 0.00 100 1008.8
20240623140036 74 294 6.0 16.0 0.00 0.00 0.00 100 1008.8
20240623134524 73 305 8.0 13.0 0.00 0.00 0.00 100 1008.6
20240623133020 72 360 7.0 14.0 0.00 0.00 0.00 100 1008.5
20240623131519 72 315 9.0 15.0 0.00 0.00 0.00 100 1008.3